Time;durP1;ratioP1;P1;durP2;ratioP2;P2;SDS_P1;SDS_P2;PMS_P1;PMS_P2;Temp;Humidity;BMP_temperature;BMP_pressure;BME280_temperature;BME280_humidity;BME280_pressure;Samples;Min_cycle;Max_cycle;Signal;HPM_P1;HPM_P2
2023/10/27 00:00:14;;;;;;;25.20;20.20;;;;;;;12.37;100.00;99343.51;109270;1253;74242;-64
2023/10/27 00:02:41;;;;;;;25.10;20.90;;;;;;;12.32;100.00;99345.05;109271;1253;62372;-65
2023/10/27 00:05:09;;;;;;;24.20;19.90;;;;;;;12.27;100.00;99347.39;109287;1253;59772;-64
2023/10/27 00:07:37;;;;;;;24.10;18.60;;;;;;;12.23;100.00;99344.30;109292;1253;75644;-65
2023/10/27 00:10:05;;;;;;;24.10;18.20;;;;;;;12.20;100.00;99342.43;109265;1253;65483;-64
2023/10/27 00:12:32;;;;;;;27.10;18.90;;;;;;;12.16;100.00;99344.40;109224;1253;72755;-65
2023/10/27 00:15:00;;;;;;;23.60;17.80;;;;;;;12.12;100.00;99337.16;109203;1253;60706;-65
2023/10/27 00:17:28;;;;;;;22.90;17.30;;;;;;;12.08;100.00;99331.61;109290;1253;59596;-64
2023/10/27 00:19:55;;;;;;;23.00;16.10;;;;;;;12.08;100.00;99325.83;109255;1252;74263;-65
2023/10/27 00:22:25;;;;;;;20.90;16.20;;;;;;;12.04;100.00;99317.42;109242;1253;66780;-65
2023/10/27 00:24:52;;;;;;;21.30;15.30;;;;;;;12.00;100.00;99325.46;109030;1253;312457;-64
2023/10/27 00:27:20;;;;;;;22.90;15.30;;;;;;;11.96;100.00;99343.41;109299;1253;61729;-65
2023/10/27 00:29:47;;;;;;;19.20;14.50;;;;;;;11.97;100.00;99346.09;109263;1253;59680;-64
2023/10/27 00:32:15;;;;;;;22.80;16.10;;;;;;;11.94;100.00;99348.36;109231;1253;74288;-65
2023/10/27 00:34:43;;;;;;;21.90;15.40;;;;;;;11.91;100.00;99362.54;109258;1253;66721;-65
2023/10/27 00:37:10;;;;;;;22.60;15.70;;;;;;;11.89;100.00;99365.21;109300;1253;72675;-63
2023/10/27 00:39:41;;;;;;;24.00;15.20;;;;;;;11.89;100.00;99357.17;109255;1253;60401;-63
2023/10/27 00:42:08;;;;;;;24.50;15.50;;;;;;;11.90;100.00;99348.64;109292;1253;60243;-62
2023/10/27 00:44:36;;;;;;;25.70;15.80;;;;;;;11.92;100.00;99340.26;109229;1253;74169;-64
2023/10/27 00:47:04;;;;;;;21.70;14.30;;;;;;;11.94;100.00;99328.73;109289;1252;66973;-64
2023/10/27 00:49:31;;;;;;;21.00;14.70;;;;;;;11.90;100.00;99320.27;109331;1253;72643;-64
2023/10/27 00:51:59;;;;;;;20.30;14.30;;;;;;;11.89;100.00;99320.02;109240;1254;61068;-64
2023/10/27 00:54:26;;;;;;;21.20;14.70;;;;;;;11.88;100.00;99325.44;109273;1253;60172;-64
2023/10/27 00:56:54;;;;;;;23.10;16.80;;;;;;;11.87;100.00;99324.36;109274;1253;75903;-64
2023/10/27 00:59:23;;;;;;;22.30;16.40;;;;;;;11.86;100.00;99334.98;109315;1253;65646;-64
2023/10/27 01:01:50;;;;;;;23.50;15.10;;;;;;;11.86;100.00;99341.09;109193;1253;71140;-64
2023/10/27 01:04:18;;;;;;;25.40;15.30;;;;;;;11.87;100.00;99340.59;109257;1253;61758;-64
2023/10/27 01:06:46;;;;;;;21.90;14.90;;;;;;;11.88;100.00;99332.10;109290;1253;60139;-64
2023/10/27 01:09:13;;;;;;;23.70;15.90;;;;;;;11.88;100.00;99322.39;109207;1253;74294;-64
2023/10/27 01:11:41;;;;;;;20.20;14.60;;;;;;;11.85;100.00;99325.02;109210;1253;66809;-64
2023/10/27 01:14:09;;;;;;;21.50;15.20;;;;;;;11.82;100.00;99325.66;109103;1253;71468;-64
2023/10/27 01:16:36;;;;;;;22.20;16.50;;;;;;;11.80;100.00;99324.92;109235;1253;61639;-64
2023/10/27 01:19:04;;;;;;;25.30;17.10;;;;;;;11.76;100.00;99324.34;109290;1253;59762;-64
2023/10/27 01:21:32;;;;;;;21.60;15.40;;;;;;;11.74;100.00;99326.20;109261;1253;75550;-64
2023/10/27 01:23:59;;;;;;;20.90;16.20;;;;;;;11.74;100.00;99325.92;109138;1253;66942;-64
2023/10/27 01:26:27;;;;;;;21.60;17.00;;;;;;;11.73;100.00;99322.20;109229;1253;71774;-64
2023/10/27 01:28:55;;;;;;;22.50;16.20;;;;;;;11.73;100.00;99316.65;109270;1253;60692;-64
2023/10/27 01:31:22;;;;;;;19.00;14.40;;;;;;;11.71;100.00;99310.41;109287;1253;59849;-64
2023/10/27 01:33:50;;;;;;;21.40;15.50;;;;;;;11.72;100.00;99304.98;109254;1253;73265;-64
2023/10/27 01:36:18;;;;;;;20.40;15.90;;;;;;;11.72;100.00;99304.78;109262;1253;66974;-64
2023/10/27 01:38:46;;;;;;;21.50;16.70;;;;;;;11.72;100.00;99301.80;109299;1253;72835;-64
2023/10/27 01:41:13;;;;;;;20.20;16.80;;;;;;;11.73;100.00;99297.40;109150;1253;60831;-64
2023/10/27 01:43:41;;;;;;;21.10;16.20;;;;;;;11.76;100.00;99290.29;109329;1252;60691;-64
2023/10/27 01:46:08;;;;;;;22.50;15.80;;;;;;;11.77;100.00;99280.08;109262;1253;74201;-64
2023/10/27 01:48:36;;;;;;;19.10;14.70;;;;;;;11.77;100.00;99281.52;109267;1253;66928;-64
2023/10/27 01:51:04;;;;;;;19.80;13.50;;;;;;;11.80;100.00;99273.09;109241;1253;72759;-64
2023/10/27 01:53:33;;;;;;;17.60;13.90;;;;;;;11.81;100.00;99271.43;109252;1254;60453;-64
2023/10/27 01:56:00;;;;;;;16.20;12.60;;;;;;;11.80;100.00;99269.31;109329;1253;59688;-64
2023/10/27 01:58:29;;;;;;;19.90;14.60;;;;;;;11.81;100.00;99271.63;109144;1255;75329;-64
2023/10/27 02:00:57;;;;;;;23.40;15.60;;;;;;;11.79;100.00;99268.13;109207;1253;66775;-64
2023/10/27 02:03:25;;;;;;;20.70;15.30;;;;;;;11.79;100.00;99263.91;109171;1252;70553;-64
2023/10/27 02:05:52;;;;;;;20.80;16.40;;;;;;;11.79;100.00;99273.84;109174;1253;61810;-65
2023/10/27 02:08:20;;;;;;;21.30;16.70;;;;;;;11.80;100.00;99280.96;109246;1253;59804;-64
2023/10/27 02:10:48;;;;;;;21.40;15.90;;;;;;;11.81;100.00;99294.36;109199;1253;74589;-64
2023/10/27 02:13:15;;;;;;;19.00;13.60;;;;;;;11.82;100.00;99291.67;109180;1254;65011;-64
2023/10/27 02:15:43;;;;;;;17.60;13.30;;;;;;;11.83;100.00;99292.96;109123;1253;72727;-64
2023/10/27 02:18:11;;;;;;;19.70;13.60;;;;;;;11.85;100.00;99293.41;109139;1254;61730;-64
2023/10/27 02:20:38;;;;;;;17.30;12.90;;;;;;;11.83;100.00;99289.96;109261;1253;60670;-64
2023/10/27 02:23:06;;;;;;;17.70;13.20;;;;;;;11.81;100.00;99287.14;109242;1253;74192;-64
2023/10/27 02:25:33;;;;;;;26.30;14.00;;;;;;;11.81;100.00;99297.91;109312;1253;65781;-64
2023/10/27 02:28:01;;;;;;;17.80;13.20;;;;;;;11.84;100.00;99298.19;109217;1253;72734;-64
2023/10/27 02:30:29;;;;;;;18.40;14.20;;;;;;;11.86;100.00;99299.98;109247;1253;61893;-64
2023/10/27 02:32:56;;;;;;;23.10;15.80;;;;;;;11.87;100.00;99296.48;109280;1255;59807;-64
2023/10/27 02:35:25;;;;;;;20.80;14.90;;;;;;;11.90;100.00;99297.34;109309;1253;75520;-64
2023/10/27 02:37:54;;;;;;;16.20;12.00;;;;;;;11.92;100.00;99297.60;109273;1253;66905;-64
2023/10/27 02:40:21;;;;;;;19.00;14.30;;;;;;;11.94;100.00;99289.75;109228;1253;71341;-64
2023/10/27 02:42:50;;;;;;;22.00;15.30;;;;;;;11.94;100.00;99287.59;109255;1254;61654;-64
2023/10/27 02:45:18;;;;;;;18.50;13.60;;;;;;;11.95;100.00;99281.02;109311;1253;59689;-64
2023/10/27 02:47:46;;;;;;;19.80;13.30;;;;;;;11.90;100.00;99272.91;109287;1253;74222;-64
2023/10/27 02:50:13;;;;;;;19.80;14.60;;;;;;;11.87;100.00;99267.72;109231;1253;65708;-64
2023/10/27 02:52:41;;;;;;;18.60;14.20;;;;;;;11.84;100.00;99268.83;109351;1252;71480;-64
2023/10/27 02:55:09;;;;;;;20.80;15.40;;;;;;;11.85;100.00;99262.52;109302;1253;60478;-64
2023/10/27 02:57:36;;;;;;;19.00;13.40;;;;;;;11.87;100.00;99256.71;109395;1252;59683;-64
2023/10/27 03:00:07;;;;;;;17.20;13.30;;;;;;;11.88;100.00;99249.88;109466;1252;75527;-64
2023/10/27 03:02:35;;;;;;;16.30;12.50;;;;;;;11.90;100.00;99251.75;109356;1253;67585;-64
2023/10/27 03:05:03;;;;;;;18.30;14.20;;;;;;;11.91;100.00;99252.45;109324;1253;72746;-64
2023/10/27 03:07:31;;;;;;;20.80;14.30;;;;;;;11.93;100.00;99242.91;109369;1251;60491;-64
2023/10/27 03:09:59;;;;;;;20.10;13.50;;;;;;;11.95;100.00;99242.69;109501;1254;60916;-64
2023/10/27 03:12:30;;;;;;;20.60;16.00;;;;;;;11.94;100.00;99232.58;109396;1251;75484;-64
2023/10/27 03:14:57;;;;;;;18.10;14.70;;;;;;;12.00;100.00;99225.80;109464;1251;67405;-64
2023/10/27 03:17:26;;;;;;;18.20;14.30;;;;;;;12.04;100.00;99218.17;109433;1251;71298;-64
2023/10/27 03:19:54;;;;;;;22.30;15.90;;;;;;;12.04;100.00;99214.30;109367;1251;60563;-64
2023/10/27 03:22:22;;;;;;;18.20;14.70;;;;;;;12.05;100.00;99204.98;109238;1254;59652;-64
2023/10/27 03:24:50;;;;;;;18.10;15.30;;;;;;;12.05;100.00;99201.77;109221;1254;74480;-64
2023/10/27 03:27:18;;;;;;;18.60;15.10;;;;;;;12.07;100.00;99194.30;109210;1254;64885;-64
2023/10/27 03:29:45;;;;;;;18.70;15.10;;;;;;;12.08;100.00;99193.64;109223;1254;72757;-64
2023/10/27 03:32:14;;;;;;;19.40;15.00;;;;;;;12.09;100.00;99199.35;109260;1253;60501;-64
2023/10/27 03:34:46;;;;;;;18.70;15.30;;;;;;;12.10;100.00;99197.56;109487;1251;59697;-64
2023/10/27 03:37:13;;;;;;;20.20;15.80;;;;;;;12.13;100.00;99194.87;109466;1251;75484;-65
2023/10/27 03:39:42;;;;;;;18.50;15.90;;;;;;;12.17;100.00;99189.05;109462;1251;66929;-64
2023/10/27 03:42:10;;;;;;;20.40;16.10;;;;;;;12.21;100.00;99186.99;109412;1253;72727;-64
2023/10/27 03:44:40;;;;;;;22.90;16.80;;;;;;;12.24;100.00;99178.15;109380;1251;60406;-64
2023/10/27 03:47:09;;;;;;;17.20;14.90;;;;;;;12.26;100.00;99171.52;109495;1251;60137;-64
2023/10/27 03:49:36;;;;;;;19.50;15.90;;;;;;;12.30;100.00;99155.65;109436;1251;75442;-66
2023/10/27 03:52:04;;;;;;;19.00;16.00;;;;;;;12.32;100.00;99143.92;109484;1251;65204;-67
2023/10/27 03:54:32;;;;;;;17.50;15.10;;;;;;;12.32;100.00;99122.86;109445;1251;71401;-67
2023/10/27 03:57:01;;;;;;;16.70;14.70;;;;;;;12.32;100.00;99121.98;109382;1251;61789;-67
2023/10/27 03:59:29;;;;;;;17.10;13.50;;;;;;;12.34;100.00;99131.95;109475;1251;60537;-70
2023/10/27 04:01:57;;;;;;;17.90;14.50;;;;;;;12.35;100.00;99121.80;109504;1251;74600;-71
2023/10/27 04:04:24;;;;;;;19.10;16.00;;;;;;;12.37;100.00;99113.73;109495;1251;65657;-72
2023/10/27 04:06:53;;;;;;;18.10;15.30;;;;;;;12.38;100.00;99107.56;109403;1251;72333;-71
2023/10/27 04:09:21;;;;;;;19.50;15.80;;;;;;;12.40;100.00;99115.86;109436;1251;60454;-71
2023/10/27 04:11:49;;;;;;;17.80;14.50;;;;;;;12.42;100.00;99129.20;109438;1251;59646;-71
2023/10/27 04:14:17;;;;;;;19.70;15.90;;;;;;;12.45;100.00;99132.39;109354;1253;75479;-70
2023/10/27 04:16:44;;;;;;;20.00;16.10;;;;;;;12.48;100.00;99122.68;109376;1253;66293;-68
2023/10/27 04:19:12;;;;;;;20.50;15.10;;;;;;;12.48;100.00;99111.41;109286;1252;72797;-72
2023/10/27 04:21:43;;;;;;;17.20;13.70;;;;;;;12.50;100.00;99117.57;109258;1253;61747;-71
2023/10/27 04:24:10;;;;;;;19.80;15.20;;;;;;;12.54;100.00;99110.80;109420;1253;59998;-70
2023/10/27 04:26:38;;;;;;;19.60;15.50;;;;;;;12.58;100.00;99108.84;109289;1253;74269;-67
2023/10/27 04:29:06;;;;;;;20.20;16.20;;;;;;;12.62;100.00;99113.05;109489;1251;65827;-71
2023/10/27 04:31:34;;;;;;;18.00;15.30;;;;;;;12.67;100.00;99119.27;109463;1251;72713;-70
2023/10/27 04:34:01;;;;;;;19.30;15.00;;;;;;;12.72;100.00;99114.08;109499;1251;60474;-70
2023/10/27 04:36:29;;;;;;;18.00;15.00;;;;;;;12.76;100.00;99118.15;109455;1251;60280;-69
2023/10/27 04:38:57;;;;;;;18.10;14.60;;;;;;;12.79;100.00;99115.92;109399;1251;74234;-68
2023/10/27 04:41:25;;;;;;;18.70;14.60;;;;;;;12.81;100.00;99117.44;109493;1251;66795;-68
2023/10/27 04:43:52;;;;;;;19.00;15.90;;;;;;;12.84;100.00;99112.39;109469;1251;71417;-68
2023/10/27 04:46:20;;;;;;;18.70;14.60;;;;;;;12.89;100.00;99108.27;109458;1251;61707;-68
2023/10/27 04:48:48;;;;;;;20.60;15.40;;;;;;;12.93;100.00;99111.09;109394;1251;60027;-68
2023/10/27 04:51:16;;;;;;;18.30;14.10;;;;;;;12.98;100.00;99113.17;109489;1251;75537;-69
2023/10/27 04:53:44;;;;;;;18.80;15.60;;;;;;;13.02;100.00;99110.44;109454;1251;67392;-69
2023/10/27 04:56:11;;;;;;;20.00;15.10;;;;;;;13.02;100.00;99111.42;109482;1251;72747;-68
2023/10/27 04:58:39;;;;;;;20.90;16.10;;;;;;;13.04;100.00;99104.31;109358;1254;61737;-68
2023/10/27 05:01:07;;;;;;;22.40;16.20;;;;;;;13.10;100.00;99105.66;109424;1251;60140;-68
2023/10/27 05:03:34;;;;;;;21.50;16.30;;;;;;;13.14;100.00;99104.55;109442;1251;74224;-68
2023/10/27 05:06:07;;;;;;;22.80;16.10;;;;;;;13.17;100.00;99102.47;109429;1253;65633;-68
2023/10/27 05:08:34;;;;;;;23.40;16.90;;;;;;;13.23;100.00;99094.94;109369;1253;72741;-67
2023/10/27 05:11:03;;;;;;;22.60;16.50;;;;;;;13.30;100.00;99088.59;109364;1252;60462;-67
2023/10/27 05:13:31;;;;;;;23.60;18.20;;;;;;;13.33;100.00;99083.38;109411;1253;59665;-68
2023/10/27 05:15:59;;;;;;;23.20;17.60;;;;;;;13.37;100.00;99081.57;109356;1253;74233;-67
2023/10/27 05:18:27;;;;;;;22.80;16.70;;;;;;;13.42;100.00;99079.11;109339;1253;67016;-66
2023/10/27 05:20:55;;;;;;;21.20;16.60;;;;;;;13.47;100.00;99077.80;109413;1253;72705;-67
2023/10/27 05:23:22;;;;;;;26.10;18.00;;;;;;;13.51;100.00;99080.14;109355;1252;60449;-67
2023/10/27 05:25:52;;;;;;;24.00;18.60;;;;;;;13.55;100.00;99078.73;109279;1253;59857;-67
2023/10/27 05:28:20;;;;;;;30.70;18.50;;;;;;;13.58;100.00;99086.20;109378;1253;74249;-66
2023/10/27 05:30:50;;;;;;;25.60;17.70;;;;;;;13.61;100.00;99085.95;109414;1253;66264;-67
2023/10/27 05:33:18;;;;;;;22.10;19.00;;;;;;;13.64;100.00;99083.55;109382;1253;72719;-67
2023/10/27 05:35:46;;;;;;;20.10;16.70;;;;;;;13.69;100.00;99085.94;109386;1252;60410;-66
2023/10/27 05:38:14;;;;;;;23.40;17.70;;;;;;;13.72;100.00;99087.20;109409;1251;60215;-65
2023/10/27 05:40:41;;;;;;;34.90;28.20;;;;;;;13.74;100.00;99079.90;109446;1251;75484;-66
2023/10/27 05:43:09;;;;;;;31.20;27.90;;;;;;;13.78;100.00;99080.15;109470;1251;66947;-66
2023/10/27 05:45:37;;;;;;;23.50;19.30;;;;;;;13.83;100.00;99084.27;109499;1251;72729;-66
2023/10/27 05:48:04;;;;;;;19.90;14.40;;;;;;;13.87;100.00;99078.39;109411;1251;60480;-65
2023/10/27 05:50:32;;;;;;;18.10;14.60;;;;;;;13.92;100.00;99076.59;109504;1251;59730;-66
2023/10/27 05:52:59;;;;;;;21.20;12.80;;;;;;;13.99;100.00;99075.08;109390;1253;74238;-66
2023/10/27 05:55:27;;;;;;;16.60;12.60;;;;;;;14.07;100.00;99081.10;109350;1253;67053;-65
2023/10/27 05:57:55;;;;;;;17.90;11.20;;;;;;;14.16;100.00;99075.39;109329;1253;71511;-65
2023/10/27 06:00:22;;;;;;;17.90;12.40;;;;;;;14.24;100.00;99076.55;109307;1252;62648;-65
2023/10/27 06:02:52;;;;;;;16.70;11.80;;;;;;;14.31;100.00;99074.98;109273;1254;59717;-64
2023/10/27 06:05:20;;;;;;;15.30;10.30;;;;;;;14.38;100.00;99070.80;109307;1254;74660;-65
2023/10/27 06:07:48;;;;;;;14.10;10.00;;;;;;;14.43;100.00;99063.28;109280;1254;66190;-65
2023/10/27 06:10:17;;;;;;;13.30;9.80;;;;;;;14.50;100.00;99064.48;109308;1252;71500;-64
2023/10/27 06:12:44;;;;;;;14.00;9.30;;;;;;;14.60;100.00;99063.01;109471;1251;61681;-63
2023/10/27 06:15:12;;;;;;;13.30;9.70;;;;;;;14.68;100.00;99060.31;109456;1251;60242;-63
2023/10/27 06:17:40;;;;;;;12.40;9.00;;;;;;;14.74;100.00;99058.20;109453;1251;75509;-63
2023/10/27 06:20:07;;;;;;;13.40;9.50;;;;;;;14.76;100.00;99059.48;109450;1251;65737;-63
2023/10/27 06:22:45;;;;;;;13.50;9.30;;;;;;;14.75;100.00;99066.24;109466;1251;72712;-63
2023/10/27 06:25:12;;;;;;;12.80;9.30;;;;;;;14.72;100.00;99065.66;109451;1251;60470;-68
2023/10/27 06:27:40;;;;;;;14.30;10.10;;;;;;;14.69;100.00;99095.36;109400;1251;60241;-69
2023/10/27 06:30:08;;;;;;;14.70;10.30;;;;;;;14.64;100.00;99123.34;109444;1251;75467;-69
2023/10/27 06:32:36;;;;;;;16.90;10.80;;;;;;;14.62;100.00;99140.52;109491;1251;65488;-69
2023/10/27 06:35:04;;;;;;;16.50;10.70;;;;;;;14.60;100.00;99132.46;109424;1251;71683;-73
2023/10/27 06:37:31;;;;;;;17.10;11.10;;;;;;;14.55;100.00;99112.30;109465;1251;60454;-71
2023/10/27 06:40:00;;;;;;;18.80;12.90;;;;;;;14.52;100.00;99107.61;109511;1251;60025;-77
2023/10/27 06:42:28;;;;;;;16.90;11.10;;;;;;;14.49;100.00;99103.52;109454;1251;75453;-75
2023/10/27 06:44:56;;;;;;;18.20;12.30;;;;;;;14.48;100.00;99108.78;109486;1251;65930;-73
2023/10/27 06:47:24;;;;;;;17.00;11.00;;;;;;;14.48;100.00;99107.90;109442;1251;72775;-73
2023/10/27 06:49:51;;;;;;;15.20;12.00;;;;;;;14.48;100.00;99105.84;109513;1251;60360;-73
2023/10/27 06:52:19;;;;;;;14.90;11.70;;;;;;;14.47;100.00;99099.99;109440;1254;60137;-68
2023/10/27 06:54:47;;;;;;;14.30;11.20;;;;;;;14.50;100.00;99096.61;109312;1253;75899;-74
2023/10/27 06:57:14;;;;;;;15.50;11.10;;;;;;;14.53;100.00;99087.14;109300;1253;65822;-73
2023/10/27 06:59:42;;;;;;;13.10;10.40;;;;;;;14.57;100.00;99087.66;109342;1253;72759;-72
2023/10/27 07:02:09;;;;;;;15.20;10.50;;;;;;;14.59;100.00;99082.52;109376;1252;60536;-71
2023/10/27 07:04:37;;;;;;;14.00;10.60;;;;;;;14.62;100.00;99072.32;109362;1253;60653;-70
2023/10/27 07:07:05;;;;;;;15.50;11.00;;;;;;;14.64;100.00;99069.98;109250;1254;75922;-70
2023/10/27 07:09:51;;;;;;;16.00;11.20;;;;;;;14.68;100.00;99065.13;109404;1253;65788;-71
2023/10/27 07:12:19;;;;;;;13.80;10.10;;;;;;;14.72;100.00;99064.45;109358;1251;72736;-70
2023/10/27 07:14:46;;;;;;;13.70;10.60;;;;;;;14.74;100.00;99056.73;109448;1251;62664;-70
2023/10/27 07:17:14;;;;;;;14.90;11.40;;;;;;;14.77;100.00;99057.45;109496;1251;60233;-71
2023/10/27 07:19:42;;;;;;;16.50;11.00;;;;;;;14.77;100.00;99056.71;109501;1251;74173;-71
2023/10/27 07:22:10;;;;;;;17.00;11.60;;;;;;;14.76;100.00;99058.70;109414;1252;66919;-70
2023/10/27 07:24:38;;;;;;;13.70;11.50;;;;;;;14.74;100.00;99061.67;109507;1254;72666;-69
2023/10/27 07:27:05;;;;;;;13.40;10.10;;;;;;;14.73;100.00;99059.27;109491;1251;63133;-69
2023/10/27 07:29:33;;;;;;;15.40;10.50;;;;;;;14.70;100.00;99061.03;109499;1251;60441;-69
2023/10/27 07:32:01;;;;;;;15.30;10.80;;;;;;;14.69;100.00;99060.94;109437;1251;77364;-66
2023/10/27 07:34:28;;;;;;;14.20;9.30;;;;;;;14.68;100.00;99066.54;109511;1251;66957;-68
2023/10/27 07:36:56;;;;;;;12.70;9.50;;;;;;;14.67;100.00;99078.44;109486;1251;72460;-68
2023/10/27 07:39:24;;;;;;;13.10;10.20;;;;;;;14.65;100.00;99081.29;109463;1251;61635;-67
2023/10/27 07:41:51;;;;;;;11.90;8.90;;;;;;;14.64;100.00;99083.64;109407;1252;60793;-65
2023/10/27 07:44:19;;;;;;;13.20;8.90;;;;;;;14.64;100.00;99077.23;109322;1252;75323;-68
2023/10/27 07:46:47;;;;;;;12.40;10.10;;;;;;;14.65;100.00;99074.67;109347;1252;66683;-68
2023/10/27 07:49:16;;;;;;;14.40;9.80;;;;;;;14.66;100.00;99073.61;109288;1252;75079;-67
2023/10/27 07:51:44;;;;;;;13.20;10.30;;;;;;;14.66;100.00;99080.42;109291;1252;62558;-67
2023/10/27 07:54:13;;;;;;;14.30;10.70;;;;;;;14.66;100.00;99072.80;109386;1252;60244;-67
2023/10/27 07:56:41;;;;;;;15.00;9.60;;;;;;;14.68;100.00;99077.15;109411;1253;75301;-66
2023/10/27 07:59:09;;;;;;;14.70;10.50;;;;;;;14.74;100.00;99080.48;109322;1252;67612;-67
2023/10/27 08:01:37;;;;;;;13.70;10.40;;;;;;;14.79;100.00;99082.35;109278;1253;74928;-67
2023/10/27 08:04:06;;;;;;;13.60;11.60;;;;;;;14.83;100.00;99084.36;109267;1252;60551;-67
2023/10/27 08:06:33;;;;;;;14.20;10.80;;;;;;;14.90;100.00;99079.73;109484;1251;60981;-67
2023/10/27 08:09:01;;;;;;;12.60;9.50;;;;;;;14.96;100.00;99078.25;109478;1251;74710;-66
2023/10/27 08:11:29;;;;;;;13.60;9.80;;;;;;;15.02;100.00;99080.14;109516;1251;68458;-66
2023/10/27 08:13:57;;;;;;;14.00;10.10;;;;;;;15.08;100.00;99083.52;109423;1256;73172;-65
2023/10/27 08:16:24;;;;;;;14.00;10.10;;;;;;;15.12;100.00;99086.36;109461;1251;60437;-66
2023/10/27 08:18:52;;;;;;;16.70;11.90;;;;;;;15.14;100.00;99082.96;109468;1251;60991;-66
2023/10/27 08:21:20;;;;;;;13.30;9.90;;;;;;;15.17;100.00;99085.58;109492;1250;76412;-66
2023/10/27 08:23:47;;;;;;;16.10;10.90;;;;;;;15.22;100.00;99085.70;109494;1251;66682;-65
2023/10/27 08:26:15;;;;;;;13.90;10.80;;;;;;;15.27;100.00;99087.87;109417;1251;73809;-64
2023/10/27 08:28:43;;;;;;;15.60;11.30;;;;;;;15.34;100.00;99084.40;109468;1251;62413;-66
2023/10/27 08:31:11;;;;;;;15.70;12.00;;;;;;;15.38;100.00;99081.61;109493;1251;59902;-64
2023/10/27 08:33:40;;;;;;;16.30;11.50;;;;;;;15.40;100.00;99082.16;109541;1251;74027;-64
2023/10/27 08:36:08;;;;;;;15.00;11.30;;;;;;;15.41;100.00;99079.11;109420;1256;66678;-63
2023/10/27 08:38:36;;;;;;;12.50;10.60;;;;;;;15.43;100.00;99078.89;109486;1251;72697;-64
2023/10/27 08:41:05;;;;;;;16.50;12.00;;;;;;;15.45;100.00;99077.17;109445;1254;61918;-64
2023/10/27 08:43:32;;;;;;;16.80;11.60;;;;;;;15.46;100.00;99068.43;109507;1250;60139;-65
2023/10/27 08:46:04;;;;;;;17.90;11.50;;;;;;;15.46;100.00;99062.70;109175;1258;77813;-63
2023/10/27 08:48:32;;;;;;;14.00;12.50;;;;;;;15.50;100.00;99059.39;109321;1252;66313;-64
2023/10/27 08:51:06;;;;;;;15.10;11.80;;;;;;;15.54;100.00;99061.05;109313;1253;73649;-64
2023/10/27 08:53:38;;;;;;;17.90;15.00;;;;;;;15.57;100.00;99061.11;109378;1254;62082;-65
2023/10/27 08:56:12;;;;;;;24.90;21.90;;;;;;;15.61;100.00;99060.52;109459;1251;60558;-64
2023/10/27 08:58:40;;;;;;;17.50;12.40;;;;;;;15.63;100.00;99060.32;109435;1251;75425;-65
2023/10/27 09:01:08;;;;;;;15.90;11.90;;;;;;;15.64;100.00;99063.59;109524;1251;66758;-64
2023/10/27 09:03:35;;;;;;;12.60;10.40;;;;;;;15.67;100.00;99069.86;109447;1251;71534;-63
2023/10/27 09:06:04;;;;;;;25.90;22.60;;;;;;;15.69;100.00;99067.27;109467;1256;61765;-64
2023/10/27 09:08:32;;;;;;;15.70;12.90;;;;;;;15.71;100.00;99068.27;109481;1251;60946;-63
2023/10/27 09:11:00;;;;;;;18.90;12.50;;;;;;;15.74;100.00;99073.41;109556;1251;77167;-64
2023/10/27 09:13:27;;;;;;;13.20;9.90;;;;;;;15.76;100.00;99070.29;109473;1251;67904;-63
2023/10/27 09:15:56;;;;;;;12.60;9.90;;;;;;;15.79;100.00;99069.46;109443;1251;74043;-63
2023/10/27 09:18:34;;;;;;;13.40;10.50;;;;;;;15.81;100.00;99070.81;109481;1251;61163;-63
2023/10/27 09:21:02;;;;;;;13.60;10.20;;;;;;;15.83;100.00;99069.48;109506;1251;62000;-63
2023/10/27 09:23:42;;;;;;;13.50;10.40;;;;;;;15.86;100.00;99071.91;109443;1251;76423;-63
2023/10/27 09:26:10;;;;;;;14.50;9.50;;;;;;;15.88;100.00;99072.73;109488;1251;67077;-63
2023/10/27 09:28:38;;;;;;;13.10;10.00;;;;;;;15.90;100.00;99074.48;109376;1253;73219;-63
2023/10/27 09:31:05;;;;;;;17.60;11.30;;;;;;;15.92;100.00;99066.88;109292;1252;61432;-63
2023/10/27 09:33:33;;;;;;;16.90;11.30;;;;;;;15.95;100.00;99058.14;109245;1255;59680;-63
2023/10/27 09:36:02;;;;;;;15.10;10.30;;;;;;;15.98;100.00;99058.28;109431;1253;75289;-63
2023/10/27 09:38:30;;;;;;;17.50;11.30;;;;;;;16.02;100.00;99058.41;109409;1253;65183;-63
2023/10/27 09:53:07;;;;;;;13.20;8.90;;;;;;;16.33;100.00;99076.48;102918;1287;613581;-63
2023/10/27 09:55:35;;;;;;;15.30;8.30;;;;;;;16.70;100.00;99080.59;104375;1268;128584;-62
2023/10/27 09:58:03;;;;;;;16.50;9.50;;;;;;;16.75;100.00;99080.70;104905;1267;60360;-62
2023/10/27 10:00:31;;;;;;;18.00;9.10;;;;;;;16.81;100.00;99080.59;105133;1264;73054;-63
2023/10/27 10:03:00;;;;;;;15.20;9.00;;;;;;;16.86;100.00;99077.10;105114;1265;65910;-63
2023/10/27 10:05:28;;;;;;;14.40;9.30;;;;;;;16.91;100.00;99075.13;105108;1265;72972;-63
2023/10/27 10:07:56;;;;;;;12.10;8.40;;;;;;;16.94;100.00;99079.77;104953;1266;62238;-63
2023/10/27 10:10:34;;;;;;;14.00;9.70;;;;;;;16.95;100.00;99081.90;104980;1261;60378;-63
2023/10/27 10:13:16;;;;;;;17.20;9.60;;;;;;;16.93;100.00;99076.84;104960;1262;72373;-61
2023/10/27 10:15:45;;;;;;;16.40;9.60;;;;;;;16.90;100.00;99072.98;104913;1259;66961;-63
2023/10/27 10:18:25;;;;;;;16.90;11.20;;;;;;;16.89;100.00;99075.75;105110;1267;73007;-62
2023/10/27 10:20:57;;;;;;;16.20;11.30;;;;;;;16.87;100.00;99074.68;105562;1262;61730;-61
2023/10/27 10:23:37;;;;;;;16.70;11.40;;;;;;;16.85;100.00;99068.08;105197;1259;60101;-61
2023/10/27 10:26:05;;;;;;;17.00;11.60;;;;;;;16.89;100.00;99068.80;104875;1257;74454;-61
2023/10/27 10:28:33;;;;;;;16.90;10.10;;;;;;;16.89;100.00;99067.69;105093;1259;67845;-61
2023/10/27 10:31:08;;;;;;;17.40;10.80;;;;;;;16.91;100.00;99065.29;105271;1259;73129;-61
2023/10/27 10:33:44;;;;;;;17.40;11.20;;;;;;;16.95;100.00;99065.73;105090;1264;61050;-61
2023/10/27 10:36:22;;;;;;;21.60;12.00;;;;;;;17.03;100.00;99061.80;105062;1261;59921;-60
2023/10/27 10:38:50;;;;;;;15.30;9.70;;;;;;;17.07;100.00;99067.71;105090;1261;72922;-61
2023/10/27 10:41:18;;;;;;;17.60;9.80;;;;;;;17.12;100.00;99066.63;104940;1259;69703;-60
2023/10/27 10:44:16;;;;;;;19.80;9.70;;;;;;;17.11;100.00;99065.57;105201;1265;71793;-60
2023/10/27 10:46:45;;;;;;;16.70;10.30;;;;;;;17.12;100.00;99066.52;104953;1262;60451;-60
2023/10/27 10:49:23;;;;;;;16.90;10.80;;;;;;;17.07;100.00;99071.48;105001;1262;59553;-60
2023/10/27 10:51:55;;;;;;;14.20;9.50;;;;;;;16.98;100.00;99073.70;105455;1262;73233;-60
2023/10/27 10:54:27;;;;;;;;;;;;;;;16.98;100.00;99077.87;105131;1262;66463;-61
2023/10/27 10:57:02;;;;;;;13.80;9.30;;;;;;;17.00;100.00;99076.88;105027;1264;73882;-60
2023/10/27 10:59:30;;;;;;;23.50;10.10;;;;;;;17.01;100.00;99071.80;105044;1261;61544;-60
2023/10/27 11:01:59;;;;;;;17.70;9.90;;;;;;;17.05;100.00;99073.55;105011;1266;59918;-60
2023/10/27 11:04:28;;;;;;;16.70;9.60;;;;;;;17.12;100.00;99072.16;105006;1264;72954;-60
2023/10/27 11:07:14;;;;;;;16.60;10.10;;;;;;;17.20;100.00;99065.88;105233;1258;67429;-60
2023/10/27 11:09:43;;;;;;;15.50;9.40;;;;;;;17.28;100.00;99065.35;105437;1263;72887;-60
2023/10/27 11:12:27;;;;;;;13.70;9.40;;;;;;;17.39;100.00;99068.88;105193;1264;63088;-60
2023/10/27 11:14:55;;;;;;;14.10;9.70;;;;;;;17.43;100.00;99070.47;105353;1256;62620;-60
2023/10/27 11:17:22;;;;;;;15.30;10.50;;;;;;;17.38;100.00;99070.20;105318;1256;72520;-60
2023/10/27 11:19:51;;;;;;;19.40;9.70;;;;;;;17.41;100.00;99069.83;104960;1256;67506;-60